sensor_id;sensor_type;location;lat;lon;timestamp;P1;durP1;ratioP1;P2;durP2;ratioP2
18447;SDS011;9353;50.956;6.920;2022-09-20T00:01:34;3.23;;;1.57;;
18447;SDS011;9353;50.956;6.920;2022-09-20T00:04:02;2.60;;;1.63;;
18447;SDS011;9353;50.956;6.920;2022-09-20T00:06:30;5.33;;;1.90;;
18447;SDS011;9353;50.956;6.920;2022-09-20T00:08:59;2.67;;;2.17;;
18447;SDS011;9353;50.956;6.920;2022-09-20T00:11:28;3.77;;;1.70;;
18447;SDS011;9353;50.956;6.920;2022-09-20T00:13:55;5.10;;;2.00;;
18447;SDS011;9353;50.956;6.920;2022-09-20T00:16:24;2.37;;;2.17;;
18447;SDS011;9353;50.956;6.920;2022-09-20T00:18:51;1.73;;;1.60;;
18447;SDS011;9353;50.956;6.920;2022-09-20T00:21:20;5.60;;;2.00;;
18447;SDS011;9353;50.956;6.920;2022-09-20T00:23:48;2.03;;;1.80;;
18447;SDS011;9353;50.956;6.920;2022-09-20T00:26:16;2.83;;;1.90;;
18447;SDS011;9353;50.956;6.920;2022-09-20T00:28:43;2.93;;;1.83;;
18447;SDS011;9353;50.956;6.920;2022-09-20T00:31:11;1.97;;;1.80;;
18447;SDS011;9353;50.956;6.920;2022-09-20T00:33:38;4.70;;;2.30;;
18447;SDS011;9353;50.956;6.920;2022-09-20T00:36:23;4.20;;;2.17;;
18447;SDS011;9353;50.956;6.920;2022-09-20T00:38:53;4.93;;;2.30;;
18447;SDS011;9353;50.956;6.920;2022-09-20T00:41:21;6.70;;;1.97;;
18447;SDS011;9353;50.956;6.920;2022-09-20T00:43:49;4.13;;;2.43;;
18447;SDS011;9353;50.956;6.920;2022-09-20T00:46:18;4.67;;;2.37;;
18447;SDS011;9353;50.956;6.920;2022-09-20T00:48:48;3.27;;;1.83;;
18447;SDS011;9353;50.956;6.920;2022-09-20T00:51:17;6.83;;;2.43;;
18447;SDS011;9353;50.956;6.920;2022-09-20T00:53:47;2.53;;;2.20;;
18447;SDS011;9353;50.956;6.920;2022-09-20T00:56:15;3.27;;;2.07;;
18447;SDS011;9353;50.956;6.920;2022-09-20T00:58:45;4.83;;;2.23;;
18447;SDS011;9353;50.956;6.920;2022-09-20T01:01:12;3.87;;;1.80;;
18447;SDS011;9353;50.956;6.920;2022-09-20T01:03:39;2.83;;;2.37;;
18447;SDS011;9353;50.956;6.920;2022-09-20T01:06:09;3.20;;;2.17;;
18447;SDS011;9353;50.956;6.920;2022-09-20T01:08:37;4.43;;;2.30;;
18447;SDS011;9353;50.956;6.920;2022-09-20T01:11:04;3.13;;;2.23;;
18447;SDS011;9353;50.956;6.920;2022-09-20T01:13:31;5.67;;;2.70;;
18447;SDS011;9353;50.956;6.920;2022-09-20T01:16:00;3.77;;;2.93;;
18447;SDS011;9353;50.956;6.920;2022-09-20T01:18:27;2.87;;;2.67;;
18447;SDS011;9353;50.956;6.920;2022-09-20T01:20:55;7.23;;;2.60;;
18447;SDS011;9353;50.956;6.920;2022-09-20T01:23:28;2.23;;;2.13;;
18447;SDS011;9353;50.956;6.920;2022-09-20T01:26:10;2.67;;;2.47;;
18447;SDS011;9353;50.956;6.920;2022-09-20T01:28:42;3.13;;;2.57;;
18447;SDS011;9353;50.956;6.920;2022-09-20T01:31:12;6.67;;;2.30;;
18447;SDS011;9353;50.956;6.920;2022-09-20T01:33:42;4.93;;;2.83;;
18447;SDS011;9353;50.956;6.920;2022-09-20T01:36:11;3.37;;;2.50;;
18447;SDS011;9353;50.956;6.920;2022-09-20T01:38:39;3.00;;;2.77;;
18447;SDS011;9353;50.956;6.920;2022-09-20T01:41:10;3.63;;;2.87;;
18447;SDS011;9353;50.956;6.920;2022-09-20T01:43:39;4.80;;;2.60;;
18447;SDS011;9353;50.956;6.920;2022-09-20T01:46:13;4.63;;;2.50;;
18447;SDS011;9353;50.956;6.920;2022-09-20T01:48:44;2.97;;;2.63;;
18447;SDS011;9353;50.956;6.920;2022-09-20T01:51:27;2.80;;;2.57;;
18447;SDS011;9353;50.956;6.920;2022-09-20T01:54:10;3.50;;;2.53;;
18447;SDS011;9353;50.956;6.920;2022-09-20T01:59:49;3.40;;;2.67;;
18447;SDS011;9353;50.956;6.920;2022-09-20T02:02:24;3.87;;;2.70;;
18447;SDS011;9353;50.956;6.920;2022-09-20T02:05:03;6.83;;;3.30;;
18447;SDS011;9353;50.956;6.920;2022-09-20T02:07:36;6.57;;;2.97;;
18447;SDS011;9353;50.956;6.920;2022-09-20T02:10:15;4.30;;;3.00;;
18447;SDS011;9353;50.956;6.920;2022-09-20T02:12:52;4.17;;;2.93;;
18447;SDS011;9353;50.956;6.920;2022-09-20T02:15:31;6.23;;;3.13;;
18447;SDS011;9353;50.956;6.920;2022-09-20T02:18:03;3.53;;;3.03;;
18447;SDS011;9353;50.956;6.920;2022-09-20T02:20:37;3.50;;;3.03;;
18447;SDS011;9353;50.956;6.920;2022-09-20T02:23:11;3.63;;;2.97;;
18447;SDS011;9353;50.956;6.920;2022-09-20T02:25:48;6.27;;;2.87;;
18447;SDS011;9353;50.956;6.920;2022-09-20T02:28:22;9.23;;;2.80;;
18447;SDS011;9353;50.956;6.920;2022-09-20T02:30:53;4.03;;;3.33;;
18447;SDS011;9353;50.956;6.920;2022-09-20T02:33:37;5.57;;;3.00;;
18447;SDS011;9353;50.956;6.920;2022-09-20T02:36:08;4.93;;;3.40;;
18447;SDS011;9353;50.956;6.920;2022-09-20T02:38:41;5.73;;;3.07;;
18447;SDS011;9353;50.956;6.920;2022-09-20T02:41:19;5.37;;;3.23;;
18447;SDS011;9353;50.956;6.920;2022-09-20T02:43:53;5.07;;;3.20;;
18447;SDS011;9353;50.956;6.920;2022-09-20T02:46:23;5.37;;;3.60;;
18447;SDS011;9353;50.956;6.920;2022-09-20T02:48:55;3.93;;;2.90;;
18447;SDS011;9353;50.956;6.920;2022-09-20T02:51:24;4.83;;;3.23;;
18447;SDS011;9353;50.956;6.920;2022-09-20T02:53:57;4.63;;;3.23;;
18447;SDS011;9353;50.956;6.920;2022-09-20T02:56:29;3.03;;;2.67;;
18447;SDS011;9353;50.956;6.920;2022-09-20T02:58:59;7.53;;;2.90;;
18447;SDS011;9353;50.956;6.920;2022-09-20T03:01:31;3.87;;;2.97;;
18447;SDS011;9353;50.956;6.920;2022-09-20T03:04:06;3.30;;;3.00;;
18447;SDS011;9353;50.956;6.920;2022-09-20T03:06:39;3.77;;;3.00;;
18447;SDS011;9353;50.956;6.920;2022-09-20T03:09:10;6.27;;;4.17;;
18447;SDS011;9353;50.956;6.920;2022-09-20T03:11:42;6.37;;;3.13;;
18447;SDS011;9353;50.956;6.920;2022-09-20T03:14:15;4.97;;;3.43;;
18447;SDS011;9353;50.956;6.920;2022-09-20T03:16:49;5.27;;;2.93;;
18447;SDS011;9353;50.956;6.920;2022-09-20T03:19:23;4.30;;;2.87;;
18447;SDS011;9353;50.956;6.920;2022-09-20T03:21:58;6.07;;;3.77;;
18447;SDS011;9353;50.956;6.920;2022-09-20T03:24:28;4.53;;;3.13;;
18447;SDS011;9353;50.956;6.920;2022-09-20T03:27:01;3.83;;;2.80;;
18447;SDS011;9353;50.956;6.920;2022-09-20T03:29:36;4.27;;;3.17;;
18447;SDS011;9353;50.956;6.920;2022-09-20T03:32:08;7.57;;;3.37;;
18447;SDS011;9353;50.956;6.920;2022-09-20T03:34:44;4.60;;;3.43;;
18447;SDS011;9353;50.956;6.920;2022-09-20T03:37:20;6.83;;;3.37;;
18447;SDS011;9353;50.956;6.920;2022-09-20T03:40:04;4.67;;;3.03;;
18447;SDS011;9353;50.956;6.920;2022-09-20T03:42:33;7.60;;;2.80;;
18447;SDS011;9353;50.956;6.920;2022-09-20T03:45:13;4.87;;;3.13;;
18447;SDS011;9353;50.956;6.920;2022-09-20T03:47:50;3.57;;;2.73;;
18447;SDS011;9353;50.956;6.920;2022-09-20T03:50:32;7.83;;;3.20;;
18447;SDS011;9353;50.956;6.920;2022-09-20T03:53:08;5.50;;;2.60;;
18447;SDS011;9353;50.956;6.920;2022-09-20T03:55:44;4.33;;;2.20;;
18447;SDS011;9353;50.956;6.920;2022-09-20T03:58:22;5.77;;;2.73;;
18447;SDS011;9353;50.956;6.920;2022-09-20T04:00:57;4.13;;;2.93;;
18447;SDS011;9353;50.956;6.920;2022-09-20T04:03:29;3.93;;;2.57;;
18447;SDS011;9353;50.956;6.920;2022-09-20T04:06:12;5.20;;;2.47;;
18447;SDS011;9353;50.956;6.920;2022-09-20T04:08:55;4.87;;;2.73;;
18447;SDS011;9353;50.956;6.920;2022-09-20T04:11:27;2.90;;;2.37;;
18447;SDS011;9353;50.956;6.920;2022-09-20T04:13:59;6.67;;;2.33;;
18447;SDS011;9353;50.956;6.920;2022-09-20T04:16:32;4.97;;;2.27;;
18447;SDS011;9353;50.956;6.920;2022-09-20T04:19:02;7.10;;;2.03;;
18447;SDS011;9353;50.956;6.920;2022-09-20T04:21:33;5.47;;;2.30;;
18447;SDS011;9353;50.956;6.920;2022-09-20T04:24:03;4.53;;;2.20;;
18447;SDS011;9353;50.956;6.920;2022-09-20T04:26:33;3.43;;;2.33;;
18447;SDS011;9353;50.956;6.920;2022-09-20T04:29:11;6.93;;;2.47;;
18447;SDS011;9353;50.956;6.920;2022-09-20T04:31:42;6.53;;;2.23;;
18447;SDS011;9353;50.956;6.920;2022-09-20T04:34:12;5.93;;;2.50;;
18447;SDS011;9353;50.956;6.920;2022-09-20T04:36:59;2.33;;;2.10;;
18447;SDS011;9353;50.956;6.920;2022-09-20T04:39:33;3.23;;;2.30;;
18447;SDS011;9353;50.956;6.920;2022-09-20T04:42:24;5.07;;;2.20;;
18447;SDS011;9353;50.956;6.920;2022-09-20T04:45:08;5.33;;;2.00;;
18447;SDS011;9353;50.956;6.920;2022-09-20T04:50:43;6.07;;;2.40;;
18447;SDS011;9353;50.956;6.920;2022-09-20T04:53:30;7.67;;;2.43;;
18447;SDS011;9353;50.956;6.920;2022-09-20T04:56:06;4.17;;;2.33;;
18447;SDS011;9353;50.956;6.920;2022-09-20T04:58:45;3.13;;;1.67;;
18447;SDS011;9353;50.956;6.920;2022-09-20T05:04:13;4.93;;;2.30;;
18447;SDS011;9353;50.956;6.920;2022-09-20T05:06:55;3.93;;;2.40;;
18447;SDS011;9353;50.956;6.920;2022-09-20T05:09:38;3.03;;;2.30;;
18447;SDS011;9353;50.956;6.920;2022-09-20T05:12:23;6.97;;;2.37;;
18447;SDS011;9353;50.956;6.920;2022-09-20T05:15:18;3.17;;;2.67;;
18447;SDS011;9353;50.956;6.920;2022-09-20T05:17:53;6.63;;;2.63;;
18447;SDS011;9353;50.956;6.920;2022-09-20T05:20:34;2.50;;;2.30;;
18447;SDS011;9353;50.956;6.920;2022-09-20T05:23:12;2.83;;;2.17;;
18447;SDS011;9353;50.956;6.920;2022-09-20T05:28:30;6.30;;;2.93;;
18447;SDS011;9353;50.956;6.920;2022-09-20T05:31:02;7.50;;;3.07;;
18447;SDS011;9353;50.956;6.920;2022-09-20T05:33:32;4.00;;;3.20;;
18447;SDS011;9353;50.956;6.920;2022-09-20T05:36:04;3.70;;;3.13;;
18447;SDS011;9353;50.956;6.920;2022-09-20T05:38:38;5.80;;;4.33;;
18447;SDS011;9353;50.956;6.920;2022-09-20T05:41:10;5.73;;;3.37;;
18447;SDS011;9353;50.956;6.920;2022-09-20T05:43:52;5.30;;;3.10;;
18447;SDS011;9353;50.956;6.920;2022-09-20T05:46:24;11.67;;;3.77;;
18447;SDS011;9353;50.956;6.920;2022-09-20T05:49:03;5.43;;;3.40;;
18447;SDS011;9353;50.956;6.920;2022-09-20T05:51:35;4.47;;;3.30;;
18447;SDS011;9353;50.956;6.920;2022-09-20T05:54:20;4.07;;;3.60;;
18447;SDS011;9353;50.956;6.920;2022-09-20T05:56:51;8.23;;;3.53;;
18447;SDS011;9353;50.956;6.920;2022-09-20T05:59:27;3.93;;;3.63;;
18447;SDS011;9353;50.956;6.920;2022-09-20T06:01:57;7.33;;;4.60;;
18447;SDS011;9353;50.956;6.920;2022-09-20T06:04:25;5.33;;;4.83;;
18447;SDS011;9353;50.956;6.920;2022-09-20T06:06:56;5.80;;;4.77;;
18447;SDS011;9353;50.956;6.920;2022-09-20T06:09:27;6.47;;;5.57;;
18447;SDS011;9353;50.956;6.920;2022-09-20T06:12:07;5.30;;;4.80;;
18447;SDS011;9353;50.956;6.920;2022-09-20T06:14:42;5.57;;;5.07;;
18447;SDS011;9353;50.956;6.920;2022-09-20T06:17:15;5.73;;;5.00;;
18447;SDS011;9353;50.956;6.920;2022-09-20T06:19:45;7.53;;;6.77;;
18447;SDS011;9353;50.956;6.920;2022-09-20T06:22:18;6.10;;;5.37;;
18447;SDS011;9353;50.956;6.920;2022-09-20T06:24:46;6.37;;;5.47;;
18447;SDS011;9353;50.956;6.920;2022-09-20T06:27:16;8.70;;;5.30;;
18447;SDS011;9353;50.956;6.920;2022-09-20T06:29:46;6.43;;;5.33;;
18447;SDS011;9353;50.956;6.920;2022-09-20T06:32:15;7.67;;;4.87;;
18447;SDS011;9353;50.956;6.920;2022-09-20T06:34:42;7.83;;;5.63;;
18447;SDS011;9353;50.956;6.920;2022-09-20T06:37:13;6.63;;;5.47;;
18447;SDS011;9353;50.956;6.920;2022-09-20T06:40:00;11.07;;;5.20;;
18447;SDS011;9353;50.956;6.920;2022-09-20T06:42:46;8.00;;;5.60;;
18447;SDS011;9353;50.956;6.920;2022-09-20T06:45:15;5.80;;;5.30;;
18447;SDS011;9353;50.956;6.920;2022-09-20T06:47:42;5.93;;;5.43;;
18447;SDS011;9353;50.956;6.920;2022-09-20T06:50:13;7.77;;;5.43;;
18447;SDS011;9353;50.956;6.920;2022-09-20T06:52:41;7.23;;;5.50;;
18447;SDS011;9353;50.956;6.920;2022-09-20T06:55:10;6.30;;;5.90;;
18447;SDS011;9353;50.956;6.920;2022-09-20T06:57:39;6.10;;;5.50;;
18447;SDS011;9353;50.956;6.920;2022-09-20T07:00:07;6.27;;;5.67;;
18447;SDS011;9353;50.956;6.920;2022-09-20T07:02:36;8.80;;;5.43;;
18447;SDS011;9353;50.956;6.920;2022-09-20T07:05:04;6.10;;;4.87;;
18447;SDS011;9353;50.956;6.920;2022-09-20T07:07:34;7.33;;;5.67;;
18447;SDS011;9353;50.956;6.920;2022-09-20T07:10:01;7.80;;;6.67;;
18447;SDS011;9353;50.956;6.920;2022-09-20T07:12:29;5.47;;;4.97;;
18447;SDS011;9353;50.956;6.920;2022-09-20T07:14:57;6.23;;;4.67;;
18447;SDS011;9353;50.956;6.920;2022-09-20T07:17:24;6.93;;;5.23;;
18447;SDS011;9353;50.956;6.920;2022-09-20T07:19:53;5.87;;;5.07;;
18447;SDS011;9353;50.956;6.920;2022-09-20T07:22:21;5.60;;;5.07;;
18447;SDS011;9353;50.956;6.920;2022-09-20T07:24:48;5.43;;;4.90;;
18447;SDS011;9353;50.956;6.920;2022-09-20T07:27:15;4.30;;;4.00;;
18447;SDS011;9353;50.956;6.920;2022-09-20T07:29:43;7.40;;;4.43;;
18447;SDS011;9353;50.956;6.920;2022-09-20T07:32:10;4.87;;;4.20;;
18447;SDS011;9353;50.956;6.920;2022-09-20T07:34:39;8.30;;;4.23;;
18447;SDS011;9353;50.956;6.920;2022-09-20T07:37:07;4.43;;;3.70;;
18447;SDS011;9353;50.956;6.920;2022-09-20T07:39:35;6.27;;;4.27;;
18447;SDS011;9353;50.956;6.920;2022-09-20T07:42:03;5.07;;;3.83;;
18447;SDS011;9353;50.956;6.920;2022-09-20T07:44:31;4.17;;;3.03;;
18447;SDS011;9353;50.956;6.920;2022-09-20T07:46:58;6.47;;;3.90;;
18447;SDS011;9353;50.956;6.920;2022-09-20T07:49:26;4.63;;;3.17;;
18447;SDS011;9353;50.956;6.920;2022-09-20T07:51:54;3.33;;;3.03;;
18447;SDS011;9353;50.956;6.920;2022-09-20T07:54:23;3.60;;;3.30;;
18447;SDS011;9353;50.956;6.920;2022-09-20T07:56:51;3.53;;;2.87;;
18447;SDS011;9353;50.956;6.920;2022-09-20T07:59:18;3.83;;;2.90;;
18447;SDS011;9353;50.956;6.920;2022-09-20T08:01:45;4.00;;;3.17;;
18447;SDS011;9353;50.956;6.920;2022-09-20T08:04:12;3.77;;;2.70;;
18447;SDS011;9353;50.956;6.920;2022-09-20T08:06:40;3.83;;;2.63;;
18447;SDS011;9353;50.956;6.920;2022-09-20T08:09:07;3.53;;;3.13;;
18447;SDS011;9353;50.956;6.920;2022-09-20T08:11:36;3.53;;;2.90;;
18447;SDS011;9353;50.956;6.920;2022-09-20T08:14:04;3.57;;;3.30;;
18447;SDS011;9353;50.956;6.920;2022-09-20T08:16:35;3.17;;;2.87;;
18447;SDS011;9353;50.956;6.920;2022-09-20T08:19:03;5.10;;;2.37;;
18447;SDS011;9353;50.956;6.920;2022-09-20T08:21:31;5.20;;;2.53;;
18447;SDS011;9353;50.956;6.920;2022-09-20T08:23:59;8.07;;;2.60;;
18447;SDS011;9353;50.956;6.920;2022-09-20T08:26:28;2.53;;;2.33;;
18447;SDS011;9353;50.956;6.920;2022-09-20T08:28:58;3.87;;;2.47;;
18447;SDS011;9353;50.956;6.920;2022-09-20T08:31:26;4.93;;;2.77;;
18447;SDS011;9353;50.956;6.920;2022-09-20T08:33:55;5.57;;;2.67;;
18447;SDS011;9353;50.956;6.920;2022-09-20T08:36:24;3.17;;;1.90;;
18447;SDS011;9353;50.956;6.920;2022-09-20T08:38:51;3.73;;;2.00;;
18447;SDS011;9353;50.956;6.920;2022-09-20T08:41:20;3.77;;;1.83;;
18447;SDS011;9353;50.956;6.920;2022-09-20T08:43:48;2.93;;;1.73;;
18447;SDS011;9353;50.956;6.920;2022-09-20T08:46:18;2.73;;;1.90;;
18447;SDS011;9353;50.956;6.920;2022-09-20T08:48:47;2.60;;;2.00;;
18447;SDS011;9353;50.956;6.920;2022-09-20T08:51:14;2.97;;;1.70;;
18447;SDS011;9353;50.956;6.920;2022-09-20T08:53:44;5.20;;;2.00;;
18447;SDS011;9353;50.956;6.920;2022-09-20T08:56:12;3.60;;;2.00;;
18447;SDS011;9353;50.956;6.920;2022-09-20T08:58:39;4.43;;;1.97;;
18447;SDS011;9353;50.956;6.920;2022-09-20T09:01:09;2.67;;;1.70;;
18447;SDS011;9353;50.956;6.920;2022-09-20T09:03:38;2.80;;;1.43;;
18447;SDS011;9353;50.956;6.920;2022-09-20T09:06:09;3.97;;;2.20;;
18447;SDS011;9353;50.956;6.920;2022-09-20T09:08:38;3.27;;;1.53;;
18447;SDS011;9353;50.956;6.920;2022-09-20T09:11:06;3.23;;;2.37;;
18447;SDS011;9353;50.956;6.920;2022-09-20T09:13:34;2.63;;;2.10;;
18447;SDS011;9353;50.956;6.920;2022-09-20T09:16:05;4.47;;;2.00;;
18447;SDS011;9353;50.956;6.920;2022-09-20T09:18:34;5.40;;;1.67;;
18447;SDS011;9353;50.956;6.920;2022-09-20T09:21:03;2.83;;;1.80;;
18447;SDS011;9353;50.956;6.920;2022-09-20T09:23:36;1.50;;;1.27;;
18447;SDS011;9353;50.956;6.920;2022-09-20T09:26:11;3.87;;;1.83;;
18447;SDS011;9353;50.956;6.920;2022-09-20T09:28:40;4.50;;;2.03;;
18447;SDS011;9353;50.956;6.920;2022-09-20T09:31:11;2.27;;;1.77;;
18447;SDS011;9353;50.956;6.920;2022-09-20T09:33:41;2.27;;;1.50;;
18447;SDS011;9353;50.956;6.920;2022-09-20T09:36:12;1.73;;;1.63;;
18447;SDS011;9353;50.956;6.920;2022-09-20T09:38:40;3.33;;;2.00;;
18447;SDS011;9353;50.956;6.920;2022-09-20T09:41:18;6.40;;;2.20;;
18447;SDS011;9353;50.956;6.920;2022-09-20T09:43:56;3.83;;;1.63;;
18447;SDS011;9353;50.956;6.920;2022-09-20T09:46:24;4.20;;;1.70;;
18447;SDS011;9353;50.956;6.920;2022-09-20T09:49:03;2.80;;;1.67;;
18447;SDS011;9353;50.956;6.920;2022-09-20T09:51:32;2.67;;;1.40;;
18447;SDS011;9353;50.956;6.920;2022-09-20T09:54:00;2.40;;;1.50;;
18447;SDS011;9353;50.956;6.920;2022-09-20T09:56:44;3.37;;;1.17;;
18447;SDS011;9353;50.956;6.920;2022-09-20T10:02:09;1.33;;;1.23;;
18447;SDS011;9353;50.956;6.920;2022-09-20T10:04:40;3.43;;;0.70;;
18447;SDS011;9353;50.956;6.920;2022-09-20T10:07:12;2.10;;;1.30;;
18447;SDS011;9353;50.956;6.920;2022-09-20T10:12:34;3.37;;;1.30;;
18447;SDS011;9353;50.956;6.920;2022-09-20T10:17:50;2.87;;;1.50;;
18447;SDS011;9353;50.956;6.920;2022-09-20T10:20:29;1.00;;;0.80;;
18447;SDS011;9353;50.956;6.920;2022-09-20T10:23:03;1.40;;;1.10;;
18447;SDS011;9353;50.956;6.920;2022-09-20T10:25:38;1.73;;;0.73;;
18447;SDS011;9353;50.956;6.920;2022-09-20T10:28:10;1.40;;;0.80;;
18447;SDS011;9353;50.956;6.920;2022-09-20T10:30:44;2.47;;;1.20;;
18447;SDS011;9353;50.956;6.920;2022-09-20T10:33:16;3.80;;;1.00;;
18447;SDS011;9353;50.956;6.920;2022-09-20T10:35:49;1.60;;;0.90;;
18447;SDS011;9353;50.956;6.920;2022-09-20T10:38:22;9.23;;;1.17;;
18447;SDS011;9353;50.956;6.920;2022-09-20T10:41:00;1.90;;;0.70;;
18447;SDS011;9353;50.956;6.920;2022-09-20T10:43:51;1.60;;;0.93;;
18447;SDS011;9353;50.956;6.920;2022-09-20T10:46:24;2.90;;;1.00;;
18447;SDS011;9353;50.956;6.920;2022-09-20T10:48:56;2.00;;;1.03;;
18447;SDS011;9353;50.956;6.920;2022-09-20T10:51:29;2.13;;;1.30;;
18447;SDS011;9353;50.956;6.920;2022-09-20T10:54:02;1.20;;;0.80;;
18447;SDS011;9353;50.956;6.920;2022-09-20T10:56:32;1.23;;;1.10;;
18447;SDS011;9353;50.956;6.920;2022-09-20T10:59:08;2.07;;;1.40;;
18447;SDS011;9353;50.956;6.920;2022-09-20T11:01:39;2.30;;;0.70;;
18447;SDS011;9353;50.956;6.920;2022-09-20T11:06:54;1.37;;;0.80;;
18447;SDS011;9353;50.956;6.920;2022-09-20T11:09:28;2.87;;;1.20;;
18447;SDS011;9353;50.956;6.920;2022-09-20T11:11:58;1.90;;;1.00;;
18447;SDS011;9353;50.956;6.920;2022-09-20T11:14:30;1.57;;;0.70;;
18447;SDS011;9353;50.956;6.920;2022-09-20T11:17:00;3.50;;;0.90;;
18447;SDS011;9353;50.956;6.920;2022-09-20T11:19:30;3.87;;;1.47;;
18447;SDS011;9353;50.956;6.920;2022-09-20T11:21:59;3.00;;;1.30;;
18447;SDS011;9353;50.956;6.920;2022-09-20T11:24:32;1.50;;;1.10;;
18447;SDS011;9353;50.956;6.920;2022-09-20T11:27:03;2.80;;;1.57;;
18447;SDS011;9353;50.956;6.920;2022-09-20T11:29:33;1.87;;;1.10;;
18447;SDS011;9353;50.956;6.920;2022-09-20T11:32:05;2.63;;;1.23;;
18447;SDS011;9353;50.956;6.920;2022-09-20T11:34:35;2.40;;;1.07;;
18447;SDS011;9353;50.956;6.920;2022-09-20T11:37:04;2.33;;;0.90;;
18447;SDS011;9353;50.956;6.920;2022-09-20T11:39:34;1.40;;;0.90;;
18447;SDS011;9353;50.956;6.920;2022-09-20T11:42:05;2.47;;;0.83;;
18447;SDS011;9353;50.956;6.920;2022-09-20T11:44:32;5.97;;;1.30;;
18447;SDS011;9353;50.956;6.920;2022-09-20T11:47:02;1.80;;;1.57;;
18447;SDS011;9353;50.956;6.920;2022-09-20T11:49:34;1.50;;;0.90;;
18447;SDS011;9353;50.956;6.920;2022-09-20T11:52:09;1.07;;;0.93;;
18447;SDS011;9353;50.956;6.920;2022-09-20T11:54:49;3.50;;;1.10;;
18447;SDS011;9353;50.956;6.920;2022-09-20T11:57:20;2.67;;;1.00;;
18447;SDS011;9353;50.956;6.920;2022-09-20T11:59:48;1.27;;;1.10;;
18447;SDS011;9353;50.956;6.920;2022-09-20T12:02:17;2.57;;;1.23;;
18447;SDS011;9353;50.956;6.920;2022-09-20T12:04:46;1.03;;;1.00;;
18447;SDS011;9353;50.956;6.920;2022-09-20T12:07:18;3.43;;;1.37;;
18447;SDS011;9353;50.956;6.920;2022-09-20T12:09:51;1.20;;;0.97;;
18447;SDS011;9353;50.956;6.920;2022-09-20T12:12:26;2.63;;;1.20;;
18447;SDS011;9353;50.956;6.920;2022-09-20T12:14:54;0.80;;;0.70;;
18447;SDS011;9353;50.956;6.920;2022-09-20T12:22:50;0.73;;;0.70;;
18447;SDS011;9353;50.956;6.920;2022-09-20T12:25:37;1.97;;;1.10;;
18447;SDS011;9353;50.956;6.920;2022-09-20T12:28:10;1.57;;;1.03;;
18447;SDS011;9353;50.956;6.920;2022-09-20T12:30:39;1.90;;;0.50;;
18447;SDS011;9353;50.956;6.920;2022-09-20T12:33:16;1.27;;;0.60;;
18447;SDS011;9353;50.956;6.920;2022-09-20T12:35:56;0.83;;;0.57;;
18447;SDS011;9353;50.956;6.920;2022-09-20T12:38:31;0.53;;;0.40;;
18447;SDS011;9353;50.956;6.920;2022-09-20T12:41:01;1.67;;;0.70;;
18447;SDS011;9353;50.956;6.920;2022-09-20T12:43:29;0.73;;;0.73;;
18447;SDS011;9353;50.956;6.920;2022-09-20T12:45:57;1.13;;;0.87;;
18447;SDS011;9353;50.956;6.920;2022-09-20T12:48:26;1.90;;;0.60;;
18447;SDS011;9353;50.956;6.920;2022-09-20T12:51:01;1.63;;;0.90;;
18447;SDS011;9353;50.956;6.920;2022-09-20T12:54:03;1.43;;;0.60;;
18447;SDS011;9353;50.956;6.920;2022-09-20T12:56:33;2.80;;;0.80;;
18447;SDS011;9353;50.956;6.920;2022-09-20T12:59:01;1.50;;;0.50;;
18447;SDS011;9353;50.956;6.920;2022-09-20T13:01:32;1.43;;;0.60;;
18447;SDS011;9353;50.956;6.920;2022-09-20T13:07:09;0.90;;;0.70;;
18447;SDS011;9353;50.956;6.920;2022-09-20T13:09:52;2.17;;;0.70;;
18447;SDS011;9353;50.956;6.920;2022-09-20T13:12:20;0.50;;;0.50;;
18447;SDS011;9353;50.956;6.920;2022-09-20T13:14:47;0.50;;;0.40;;
18447;SDS011;9353;50.956;6.920;2022-09-20T13:17:17;2.23;;;0.60;;
18447;SDS011;9353;50.956;6.920;2022-09-20T13:19:48;2.67;;;0.80;;
18447;SDS011;9353;50.956;6.920;2022-09-20T13:22:19;2.90;;;0.70;;
18447;SDS011;9353;50.956;6.920;2022-09-20T13:24:49;1.87;;;0.70;;
18447;SDS011;9353;50.956;6.920;2022-09-20T13:27:21;3.63;;;1.10;;
18447;SDS011;9353;50.956;6.920;2022-09-20T13:29:49;1.87;;;0.90;;
18447;SDS011;9353;50.956;6.920;2022-09-20T13:32:19;4.47;;;1.10;;
18447;SDS011;9353;50.956;6.920;2022-09-20T13:35:03;1.87;;;0.63;;
18447;SDS011;9353;50.956;6.920;2022-09-20T13:37:31;3.50;;;0.90;;
18447;SDS011;9353;50.956;6.920;2022-09-20T13:39:59;1.17;;;0.80;;
18447;SDS011;9353;50.956;6.920;2022-09-20T13:42:28;1.73;;;1.30;;
18447;SDS011;9353;50.956;6.920;2022-09-20T13:44:55;6.53;;;1.47;;
18447;SDS011;9353;50.956;6.920;2022-09-20T13:47:25;1.43;;;0.80;;
18447;SDS011;9353;50.956;6.920;2022-09-20T13:49:52;2.53;;;0.93;;
18447;SDS011;9353;50.956;6.920;2022-09-20T13:52:26;3.10;;;0.90;;
18447;SDS011;9353;50.956;6.920;2022-09-20T13:54:53;1.93;;;0.83;;
18447;SDS011;9353;50.956;6.920;2022-09-20T13:57:21;2.23;;;0.97;;
18447;SDS011;9353;50.956;6.920;2022-09-20T13:59:50;1.03;;;0.50;;
18447;SDS011;9353;50.956;6.920;2022-09-20T14:02:19;0.70;;;0.70;;
18447;SDS011;9353;50.956;6.920;2022-09-20T14:04:47;1.03;;;0.43;;
18447;SDS011;9353;50.956;6.920;2022-09-20T14:07:15;0.97;;;0.80;;
18447;SDS011;9353;50.956;6.920;2022-09-20T14:09:43;1.07;;;0.77;;
18447;SDS011;9353;50.956;6.920;2022-09-20T14:12:10;0.57;;;0.57;;
18447;SDS011;9353;50.956;6.920;2022-09-20T14:14:38;1.33;;;0.80;;
18447;SDS011;9353;50.956;6.920;2022-09-20T14:17:07;1.13;;;0.50;;
18447;SDS011;9353;50.956;6.920;2022-09-20T14:19:39;6.50;;;0.73;;
18447;SDS011;9353;50.956;6.920;2022-09-20T14:22:07;2.13;;;1.10;;
18447;SDS011;9353;50.956;6.920;2022-09-20T14:24:38;1.20;;;0.63;;
18447;SDS011;9353;50.956;6.920;2022-09-20T14:27:16;1.83;;;0.90;;
18447;SDS011;9353;50.956;6.920;2022-09-20T14:29:44;1.47;;;1.20;;
18447;SDS011;9353;50.956;6.920;2022-09-20T14:32:20;2.53;;;0.97;;
18447;SDS011;9353;50.956;6.920;2022-09-20T14:34:51;1.90;;;0.70;;
18447;SDS011;9353;50.956;6.920;2022-09-20T14:37:23;2.70;;;0.63;;
18447;SDS011;9353;50.956;6.920;2022-09-20T14:39:51;0.70;;;0.70;;
18447;SDS011;9353;50.956;6.920;2022-09-20T14:42:19;1.17;;;0.67;;
18447;SDS011;9353;50.956;6.920;2022-09-20T14:44:48;1.27;;;0.80;;
18447;SDS011;9353;50.956;6.920;2022-09-20T14:47:26;1.37;;;0.77;;
18447;SDS011;9353;50.956;6.920;2022-09-20T14:49:53;1.30;;;0.77;;
18447;SDS011;9353;50.956;6.920;2022-09-20T14:52:34;1.80;;;0.60;;
18447;SDS011;9353;50.956;6.920;2022-09-20T14:55:09;0.80;;;0.80;;
18447;SDS011;9353;50.956;6.920;2022-09-20T14:57:37;3.37;;;1.07;;
18447;SDS011;9353;50.956;6.920;2022-09-20T15:00:04;2.00;;;0.53;;
18447;SDS011;9353;50.956;6.920;2022-09-20T15:02:35;2.03;;;1.10;;
18447;SDS011;9353;50.956;6.920;2022-09-20T15:05:02;2.93;;;0.90;;
18447;SDS011;9353;50.956;6.920;2022-09-20T15:07:29;0.80;;;0.80;;
18447;SDS011;9353;50.956;6.920;2022-09-20T15:09:57;1.73;;;0.70;;
18447;SDS011;9353;50.956;6.920;2022-09-20T15:12:24;0.70;;;0.70;;
18447;SDS011;9353;50.956;6.920;2022-09-20T15:14:53;1.10;;;1.00;;
18447;SDS011;9353;50.956;6.920;2022-09-20T15:17:20;0.70;;;0.70;;
18447;SDS011;9353;50.956;6.920;2022-09-20T15:19:49;0.83;;;0.80;;
18447;SDS011;9353;50.956;6.920;2022-09-20T15:22:16;1.50;;;1.10;;
18447;SDS011;9353;50.956;6.920;2022-09-20T15:24:43;1.50;;;0.70;;
18447;SDS011;9353;50.956;6.920;2022-09-20T15:27:10;1.00;;;0.80;;
18447;SDS011;9353;50.956;6.920;2022-09-20T15:29:38;0.97;;;0.97;;
18447;SDS011;9353;50.956;6.920;2022-09-20T15:32:05;2.20;;;0.70;;
18447;SDS011;9353;50.956;6.920;2022-09-20T15:34:32;1.30;;;1.07;;
18447;SDS011;9353;50.956;6.920;2022-09-20T15:37:01;2.03;;;0.97;;
18447;SDS011;9353;50.956;6.920;2022-09-20T15:39:28;1.50;;;1.33;;
18447;SDS011;9353;50.956;6.920;2022-09-20T15:41:55;1.73;;;0.90;;
18447;SDS011;9353;50.956;6.920;2022-09-20T15:44:23;1.33;;;1.20;;
18447;SDS011;9353;50.956;6.920;2022-09-20T15:46:50;0.80;;;0.60;;
18447;SDS011;9353;50.956;6.920;2022-09-20T15:49:17;0.77;;;0.63;;
18447;SDS011;9353;50.956;6.920;2022-09-20T15:51:44;0.80;;;0.80;;
18447;SDS011;9353;50.956;6.920;2022-09-20T15:54:13;2.80;;;0.63;;
18447;SDS011;9353;50.956;6.920;2022-09-20T15:56:41;2.30;;;0.80;;
18447;SDS011;9353;50.956;6.920;2022-09-20T15:59:09;1.87;;;0.70;;